^^

Metar de toute la France(point de départ, Chateauroux, classé dans l'ordre alphabétique actualisée toutes les 30 minutes)






LFBA - Agen/, France
Distance de la station: SSO 307km
Mise à jour: 02/10/2014 18:00
partiellement nuageux
partiellement nuageux
 Wind from NO
Vent: NO 6 km/h
Température: 25°C
Point de Rosée: 12°C
Humidité: 44%
Baromètre: 1023 hPa
Nuages: partiellement nuageux
Visibilité: 10 km
2014/10/02 16:00 LFBA 021600Z AUTO 32003KT 250V010 9999 NSC 25/12 Q1023
LFLP - Annecy/, France
Distance de la station: ESE 352km
Mise à jour: 02/10/2014 18:00
partiellement nuageux
partiellement nuageux
 Wind from NE
Vent: NE 9 km/h
Température: 20°C
Point de Rosée: 12°C
Humidité: 60%
Baromètre: 1025 hPa
Nuages: partiellement nuageux
Visibilité: 10 km
2014/10/02 16:00 LFLP 021600Z AUTO 04005KT 360V070 9999 NSC 20/12 Q1025
 
LFOA - Avord/ , France
Distance de la station: ENE 76km
Mise à jour: 02/10/2014 18:00
partiellement nuageux
partiellement nuageux
 Wind from NE
Vent: NE 15 km/h
Température: 23°C
Point de Rosée: 12°C
Humidité: 50%
Baromètre: 1026 hPa
Nuages: partiellement nuageux
Visibilité: 10 km
Nuages details: Quelques Nuages 1463 m
partiellement nuageux 1890 m
2014/10/02 16:00 LFOA 021600Z AUTO 04008KT 360V060 9999 FEW048 SCT062 23/12 Q1026
LFSB - Bale/, France
Distance de la station: ENE 449km
Mise à jour: 02/10/2014 18:00
Quelques Nuages
Quelques Nuages
 Wind from N
Vent: N 11 km/h
Température: 20°C
Point de Rosée: 15°C
Humidité: 73%
Baromètre: 1025 hPa
Nuages: Quelques Nuages
Visibilité: 10 km
Nuages details: Quelques Nuages 762 m
2014/10/02 16:00 LFSB 021600Z 35006KT 9999 FEW025 20/15 Q1025 NOSIG
 
LFOB - Beauvais/, France
Distance de la station: N 296km
Mise à jour: 02/10/2014 18:00
partiellement nuageux
partiellement nuageux
 Wind from calm
Vent: Vent calme
Température: 20°C
Point de Rosée: 15°C
Humidité: 73%
Baromètre: 1027 hPa
Nuages: partiellement nuageux
Visibilité: 10 km
2014/10/02 16:00 LFOB 021600Z AUTO 00000KT 9999 NSC 20/15 Q1027
LFBE - Bergerac/, France
Distance de la station: SSO 240km
Mise à jour: 02/10/2014 18:00
partiellement nuageux
partiellement nuageux
 Wind from ENE
Vent: ENE 9 km/h
Température: 25°C
Point de Rosée: 12°C
Humidité: 44%
Baromètre: 1024 hPa
Nuages: partiellement nuageux
Visibilité: 10 km
2014/10/02 16:00 LFBE 021600Z AUTO 07005KT 010V100 9999 NSC 25/12 Q1024
 
LFMU - Beziers/, France
Distance de la station: SSE 411km
Mise à jour: 02/10/2014 18:00
partiellement nuageux
partiellement nuageux
 Wind from SE
Vent: SE 9 km/h
Température: 24°C
Point de Rosée: 14°C
Humidité: 54%
Baromètre: 1022 hPa
Nuages: partiellement nuageux
Visibilité: 10 km
2014/10/02 16:00 LFMU 021600Z AUTO 13005KT 100V160 9999 NSC 24/14 Q1022
LFBZ - Biarritz/, France
Distance de la station: SO 449km
Mise à jour: 02/10/2014 18:00
Quelques Nuages
Quelques Nuages
 Wind from NO
Vent: NO 13 km/h
Température: 21°C
Point de Rosée: 15°C
Humidité: 69%
Baromètre: 1024 hPa
Nuages: Quelques Nuages
Visibilité: 10 km
Nuages details: Quelques Nuages 549 m
2014/10/02 16:00 LFBZ 021600Z 32007KT 9999 FEW018 21/15 Q1024 NOSIG
 
LFBD - Bordeaux/, France
Distance de la station: SO 289km
Mise à jour: 02/10/2014 18:00
partiellement nuageux
partiellement nuageux
 Wind from NNE
Vent: NNE 7 km/h
Température: 26°C
Point de Rosée: 12°C
Humidité: 42%
Baromètre: 1024 hPa
Nuages: partiellement nuageux
Visibilité: 10 km
2014/10/02 16:00 LFBD 021600Z AUTO 02004KT 9999 NSC 26/12 Q1024
LFAQ - Bray/, France
Distance de la station: N 358km
Mise à jour: 02/10/2014 18:00
Couvert
Couvert
 Wind from NNE
Vent: NNE 6 km/h
Température: 20°C
Point de Rosée: 12°C
Humidité: 60%
Baromètre: 1027 hPa
Nuages: Couvert
Visibilité: 10 km
Nuages details: Quelques Nuages 1219 m
Couvert 2195 m
2014/10/02 16:00 LFAQ 021600Z AUTO 02003KT 9999 FEW040 OVC072 20/12 Q1027
 
LFRB - Brest/, France
Distance de la station: ONO 492km
Mise à jour: 02/10/2014 18:00
Quelques Nuages
Quelques Nuages
 Wind from NNO
Vent: NNO 13 km/h
Température: 18°C
Point de Rosée: 15°C
Humidité: 83%
Baromètre: 1027 hPa
Nuages: Quelques Nuages
Visibilité: 10 km
Nuages details: Quelques Nuages 671 m
2014/10/02 16:00 LFRB 021600Z 34007KT 9999 FEW022 18/15 Q1027 NOSIG
LFRK - Caen/, France
Distance de la station: NNO 306km
Mise à jour: 02/10/2014 18:00
partiellement nuageux
partiellement nuageux
 Wind from NE
Vent: NE 11 km/h
Température: 19°C
Point de Rosée: 16°C
Humidité: 83%
Baromètre: 1027 hPa
Nuages: partiellement nuageux
Visibilité: 10 km
2014/10/02 16:00 LFRK 021600Z AUTO 04006KT 360V070 9999 NSC 19/16 Q1027
 
LFMK - Carcassonne/, France
Distance de la station: S 403km
Mise à jour: 02/10/2014 18:00
partiellement nuageux
partiellement nuageux
 Wind from NO
Vent: NO 15 km/h
Température: 25°C
Point de Rosée: 12°C
Humidité: 44%
Baromètre: 1023 hPa
Nuages: partiellement nuageux
Visibilité: 10 km
2014/10/02 16:00 LFMK 021600Z AUTO 31008KT 9999 NSC 25/12 Q1023
LFMV - Caumont/, France
Distance de la station: SE 410km
Mise à jour: 02/10/2014 18:00
partiellement nuageux
partiellement nuageux
 Wind from ONO
Vent: ONO 7 km/h
Température: 26°C
Point de Rosée: 15°C
Humidité: 51%
Baromètre: 1022 hPa
Nuages: partiellement nuageux
Visibilité: 10 km
2014/10/02 16:00 LFMV 021600Z AUTO 29004KT 9999 NSC 26/15 Q1022
 
LFBC - Cazaux/, France
Distance de la station: SO 336km
Mise à jour: 02/10/2014 18:00
partiellement nuageux
partiellement nuageux
 Wind from NO
Vent: NO 20 km/h
Température: 24°C
Point de Rosée: 14°C
Humidité: 54%
Baromètre: 1024 hPa
Nuages: partiellement nuageux
Visibilité: 10 km
2014/10/02 16:00 LFBC 021600Z AUTO 32011KT 290V350 9999 NSC 24/14 Q1024
LFPC - Creil/, France
Distance de la station: NNE 278km
Mise à jour: 02/10/2014 18:00
partiellement nuageux
partiellement nuageux
 Wind from NNE
Vent: NNE 9 km/h
Température: 20°C
Point de Rosée: 15°C
Humidité: 73%
Baromètre: 1027 hPa
Nuages: partiellement nuageux
Visibilité: 10 km
2014/10/02 16:00 LFPC 021600Z AUTO 02005KT 350V060 9999 NSC 20/15 Q1027
 
LFLB - Chambery/, France
Distance de la station: ESE 348km
Mise à jour: 02/10/2014 18:00
Quelques Nuages
Quelques Nuages
 Wind from O
Vent: O 6 km/h
Température: 21°C
Point de Rosée: 14°C
Humidité: 64%
Baromètre: 1024 hPa
Nuages: Quelques Nuages
Visibilité: 10 km
Nuages details: Quelques Nuages 1097 m
2014/10/02 16:00 LFLB 021600Z 27003KT 220V300 9999 FEW036 21/14 Q1024 NOSIG
LFOK - Chalons/, France
Distance de la station: NE 287km
Mise à jour: 02/10/2014 18:00
partiellement nuageux
partiellement nuageux
 Wind from NE
Vent: NE 11 km/h
Température: 21°C
Point de Rosée: 11°C
Humidité: 53%
Baromètre: 1027 hPa
Nuages: partiellement nuageux
Visibilité: 10 km
2014/10/02 16:00 LFOK 021600Z AUTO 04006KT 9999 NSC 21/11 Q1027
 
LFOC - Chateaudun/, France
Distance de la station: N 137km
Mise à jour: 02/10/2014 18:00
partiellement nuageux
partiellement nuageux
 Wind from NNE
Vent: NNE 9 km/h
Température: 23°C
Point de Rosée: 12°C
Humidité: 50%
Baromètre: 1026 hPa
Nuages: partiellement nuageux
Visibilité: 10 km
2014/10/02 16:00 LFOC 021600Z AUTO 03005KT 9999 NSC 23/12 Q1026
LFLX - Chateauroux/, France
Distance de la station: NE 4km
Mise à jour: 02/10/2014 18:00
partiellement nuageux
partiellement nuageux
 Wind from ENE
Vent: ENE 9 km/h
Température: 23°C
Point de Rosée: 12°C
Humidité: 50%
Baromètre: 1025 hPa
Nuages: partiellement nuageux
Visibilité: 10 km
2014/10/02 16:00 LFLX 021600Z AUTO 06005KT 030V110 9999 NSC 23/12 Q1025
 
LFPG - Charles De Gaulle/, France
Distance de la station: NNE 252km
Mise à jour: 02/10/2014 18:00
nuageux
nuageux
 Wind from NE
Vent: NE 9 km/h
Température: 21°C
Point de Rosée: 14°C
Humidité: 64%
Baromètre: 1027 hPa
Nuages: nuageux
Visibilité: 10 km
Nuages details: Quelques Nuages 1097 m
nuageux 7925 m
2014/10/02 16:00 LFPG 021600Z 04005KT 320V080 9999 FEW036 BKN260 21/14 Q1027 NOSIG
LFRC - Cherbourg/, France
Distance de la station: NO 390km
Mise à jour: 02/10/2014 18:00
partiellement nuageux
partiellement nuageux
 Wind from E
Vent: E 7 km/h
Température: 17°C
Point de Rosée: 15°C
Humidité: 88%
Baromètre: 1027 hPa
Nuages: partiellement nuageux
Visibilité: 10 km
2014/10/02 16:00 LFRC 021600Z AUTO 08004KT 040V110 9999 NSC 17/15 Q1027
 
LFLC - Clermont/, France
Distance de la station: SE 163km
Mise à jour: 02/10/2014 18:00
Quelques Nuages
Quelques Nuages
 Wind from NNE
Vent: NNE 11 km/h
Température: 20°C
Point de Rosée: 13°C
Humidité: 64%
Baromètre: 1025 hPa
Nuages: Quelques Nuages
Visibilité: 10 km
Nuages details: Quelques Nuages 1219 m
2014/10/02 16:00 LFLC 021600Z 02006KT 350V060 9999 FEW040 20/13 Q1025 NOSIG
LFBG - Cognac/, France
Distance de la station: SO 200km
Mise à jour: 02/10/2014 18:00
partiellement nuageux
partiellement nuageux
 Wind from NNE
Vent: NNE 11 km/h
Température: 25°C
Point de Rosée: 10°C
Humidité: 39%
Baromètre: 1024 hPa
Nuages: partiellement nuageux
Visibilité: 10 km
2014/10/02 16:00 LFBG 021600Z AUTO 03006KT 360V070 9999 NSC 25/10 Q1024
 
LFBY - Dax/, France
Distance de la station: SSO 411km
Mise à jour: 02/10/2014 18:00

 Wind from ONO
Vent: ONO 11 km/h
Température: 24°C
Point de Rosée: 15°C
Humidité: 57%
Baromètre: 1023 hPa
Visibilité: 10 km
2014/10/02 16:00 LFBY 021600Z AUTO 29006KT 260V330 9999 // ////// 24/15 Q1023
LFSD - Dijon/, France
Distance de la station: ENE 261km
Mise à jour: 02/10/2014 18:00
partiellement nuageux
partiellement nuageux
 Wind from NE
Vent: NE 15 km/h
Température: 23°C
Point de Rosée: 11°C
Humidité: 47%
Baromètre: 1025 hPa
Nuages: partiellement nuageux
Visibilité: 10 km
2014/10/02 16:00 LFSD 021600Z AUTO 05008KT 9999 NSC 23/11 Q1025
 
LFRD - Dinard/, France
Distance de la station: NO 342km
Mise à jour: 02/10/2014 18:00
partiellement nuageux
partiellement nuageux
 Wind from NE
Vent: NE 9 km/h
Température: 19°C
Point de Rosée: 13°C
Humidité: 68%
Baromètre: 1027 hPa
Nuages: partiellement nuageux
Visibilité: 10 km
2014/10/02 16:00 LFRD 021600Z AUTO 04005KT 9999 NSC 19/13 Q1027
LFGJ - Dole/, France
Distance de la station: E 286km
Mise à jour: 02/10/2014 18:00
partiellement nuageux
partiellement nuageux
 Wind from NE
Vent: NE 22 km/h
Température: 22°C
Point de Rosée: 12°C
Humidité: 53%
Baromètre: 1024 hPa
Nuages: partiellement nuageux
Visibilité: 10 km
2014/10/02 16:00 LFGJ 021600Z AUTO 04012KT 9999 NSC 22/12 Q1024
 
LFOE - Evreux/, France
Distance de la station: N 247km
Mise à jour: 02/10/2014 18:00
partiellement nuageux
partiellement nuageux
 Wind from NE
Vent: NE 11 km/h
Température: 20°C
Point de Rosée: 14°C
Humidité: 69%
Baromètre: 1027 hPa
Nuages: partiellement nuageux
Visibilité: 10 km
2014/10/02 16:00 LFOE 021600Z AUTO 05006KT 9999 NSC 20/14 Q1027
LFMT - Frejorgues/, France
Distance de la station: SSE 403km
Mise à jour: 02/10/2014 18:00
Quelques Nuages
Quelques Nuages
 Wind from SO
Vent: SO 13 km/h
Température: 25°C
Point de Rosée: 14°C
Humidité: 51%
Baromètre: 1022 hPa
Nuages: Quelques Nuages
Visibilité: 10 km
Nuages details: Quelques Nuages 1219 m
2014/10/02 16:00 LFMT 021600Z 23007KT 9999 FEW040 25/14 Q1022 NOSIG
 
LFMI - Istres/, France
Distance de la station: SE 446km
Mise à jour: 02/10/2014 18:00
partiellement nuageux
partiellement nuageux
 Wind from SSO
Vent: SSO 6 km/h
Température: 24°C
Point de Rosée: 17°C
Humidité: 65%
Baromètre: 1022 hPa
Nuages: partiellement nuageux
Visibilité: 10 km
2014/10/02 16:00 LFMI 021600Z AUTO 20003KT 170V230 9999 NSC 24/17 Q1022
LFLS - Grenoble/, France
Distance de la station: ESE 323km
Mise à jour: 02/10/2014 18:00
partiellement nuageux
partiellement nuageux
 Wind from NNE
Vent: NNE 7 km/h
Température: 20°C
Point de Rosée: 13°C
Humidité: 64%
Baromètre: 1025 hPa
Nuages: partiellement nuageux
Visibilité: 10 km
2014/10/02 16:00 LFLS 021600Z AUTO 02004KT 350V050 9999 NSC 20/13 Q1025
 
LFBH - La Rochelle/, France
Distance de la station: OSO 229km
Mise à jour: 02/10/2014 18:00
partiellement nuageux
partiellement nuageux
 Wind from NO
Vent: NO 20 km/h
Température: 22°C
Point de Rosée: 16°C
Humidité: 69%
Baromètre: 1025 hPa
Nuages: partiellement nuageux
Visibilité: 10 km
2014/10/02 16:00 LFBH 021600Z AUTO 32011KT 9999 NSC 22/16 Q1025
LFRI - La Roche Sur Yon/, France
Distance de la station: O 233km
Mise à jour: 02/10/2014 18:00
partiellement nuageux
partiellement nuageux
 Wind from NE
Vent: NE 7 km/h
Température: 24°C
Point de Rosée: 13°C
Humidité: 50%
Baromètre: 1025 hPa
Nuages: partiellement nuageux
Visibilité: 10 km
2014/10/02 16:00 LFRI 021600Z AUTO 04004KT 9999 NSC 24/13 Q1025
 
LFOH - Le Havre/, France
Distance de la station: NNO 323km
Mise à jour: 02/10/2014 18:00
partiellement nuageux
partiellement nuageux
 Wind from N
Vent: N 13 km/h
Température: 18°C
Point de Rosée: 16°C
Humidité: 88%
Baromètre: 1027 hPa
Nuages: partiellement nuageux
Visibilité: 10 km
2014/10/02 16:00 LFOH 021600Z AUTO 36007KT 9999 NSC 18/16 Q1027
LFRM - Le Mans/, France
Distance de la station: NO 166km
Mise à jour: 02/10/2014 18:00
partiellement nuageux
partiellement nuageux
 Wind from variable
Vent: variable 2 km/h
Température: 23°C
Point de Rosée: 13°C
Humidité: 53%
Baromètre: 1026 hPa
Nuages: partiellement nuageux
Visibilité: 10 km
2014/10/02 16:00 LFRM 021600Z AUTO VRB01KT 9999 NSC 23/13 Q1026
 
LFRJ - Landivisiau/, France
Distance de la station: ONO 476km
Mise à jour: 02/10/2014 18:00
nuageux
nuageux
 Wind from NNE
Vent: NNE 11 km/h
Température: 19°C
Point de Rosée: 16°C
Humidité: 83%
Baromètre: 1027 hPa
Nuages: nuageux
Visibilité: 10 km
Nuages details: partiellement nuageux 518 m
nuageux 1036 m
nuageux 1311 m
2014/10/02 16:00 LFRJ 021600Z AUTO 02006KT 9999 SCT017 BKN034 BKN043 19/16 Q1027
LFRO - Lannion/, France
Distance de la station: ONO 441km
Mise à jour: 02/10/2014 18:00
partiellement nuageux
partiellement nuageux
 Wind from NNE
Vent: NNE 7 km/h
Température: 17°C
Point de Rosée: 15°C
Humidité: 88%
Baromètre: 1027 hPa
Nuages: partiellement nuageux
Visibilité: 10 km
Nuages details: partiellement nuageux 61 m
partiellement nuageux 1890 m
2014/10/02 16:00 LFRO 021600Z AUTO 02004KT 330V080 9999 SCT002 SCT062 17/15 Q1027
 
LFRL - Lanveoc/, France
Distance de la station: ONO 485km
Mise à jour: 02/10/2014 18:00
partiellement nuageux
partiellement nuageux
 Wind from ONO
Vent: ONO 13 km/h
Température: 20°C
Point de Rosée: 15°C
Humidité: 73%
Baromètre: 1027 hPa
Nuages: partiellement nuageux
Visibilité: 10 km
2014/10/02 16:00 LFRL 021600Z AUTO 29007KT 9999 NSC 20/15 Q1027
LFBL - Limoges/, France
Distance de la station: SSO 113km
Mise à jour: 02/10/2014 18:00
partiellement nuageux
partiellement nuageux
 Wind from ENE
Vent: ENE 13 km/h
Température: 22°C
Point de Rosée: 11°C
Humidité: 50%
Baromètre: 1025 hPa
Nuages: partiellement nuageux
Visibilité: 10 km
2014/10/02 16:00 LFBL 021600Z AUTO 06007KT 9999 NSC 22/11 Q1025
 
LFQQ - Lille/, France
Distance de la station: NNE 430km
Mise à jour: 02/10/2014 18:00
partiellement nuageux
partiellement nuageux
 Wind from variable
Vent: variable 6 km/h
Température: 20°C
Point de Rosée: 12°C
Humidité: 60%
Baromètre: 1027 hPa
Nuages: partiellement nuageux
Visibilité: 10 km
Nuages details: Quelques Nuages 1311 m
partiellement nuageux 2377 m
2014/10/02 16:00 LFQQ 021600Z VRB03KT 9999 FEW043 SCT078 20/12 Q1027 NOSIG
LFRH - Lorient/, France
Distance de la station: ONO 401km
Mise à jour: 02/10/2014 18:00
partiellement nuageux
partiellement nuageux
 Wind from OSO
Vent: OSO 11 km/h
Température: 21°C
Point de Rosée: 16°C
Humidité: 73%
Baromètre: 1026 hPa
Nuages: partiellement nuageux
Visibilité: 10 km
2014/10/02 16:00 LFRH 021600Z AUTO 24006KT 9999 NSC 21/16 Q1026
 
LFLY - Lyon/, France
Distance de la station: ESE 279km
Mise à jour: 02/10/2014 18:00
partiellement nuageux
partiellement nuageux
 Wind from NNE
Vent: NNE 7 km/h
Température: 22°C
Point de Rosée: 13°C
Humidité: 57%
Baromètre: 1024 hPa
Nuages: partiellement nuageux
Visibilité: 10 km
2014/10/02 16:00 LFLY 021600Z AUTO 02004KT 350V050 9999 NSC 22/13 Q1024
LFLL - Lyon/Satolas, France
Distance de la station: ESE 287km
Mise à jour: 02/10/2014 18:00
Quelques Nuages
Quelques Nuages
 Wind from variable
Vent: variable 6 km/h
Température: 20°C
Point de Rosée: 13°C
Humidité: 64%
Baromètre: 1025 hPa
Nuages: Quelques Nuages
Visibilité: 10 km
Nuages details: Quelques Nuages 1219 m
2014/10/02 16:00 LFLL 021600Z VRB03KT 9999 FEW040 20/13 Q1025 NOSIG
 
LFSX - Luxeuil/, France
Distance de la station: ENE 366km
Mise à jour: 02/10/2014 18:00
partiellement nuageux
partiellement nuageux
 Wind from ESE
Vent: ESE 7 km/h
Température: 21°C
Point de Rosée: 14°C
Humidité: 64%
Baromètre: 1025 hPa
Nuages: partiellement nuageux
Visibilité: 10 km
2014/10/02 16:00 LFSX 021600Z AUTO 12004KT 9999 NSC 21/14 Q1025
LFJR - Marce/, France
Distance de la station: NO 134km
Mise à jour: 02/10/2014 18:00
partiellement nuageux
partiellement nuageux
 Wind from N
Vent: N 9 km/h
Température: 23°C
Point de Rosée: 13°C
Humidité: 53%
Baromètre: 1026 hPa
Nuages: partiellement nuageux
Visibilité: 10 km
2014/10/02 16:00 LFJR 021600Z AUTO 01005KT 310V040 9999 NSC 23/13 Q1026
 
LFML - Marseille/, France
Distance de la station: SE 466km
Mise à jour: 02/10/2014 18:00
Quelques Nuages
Quelques Nuages
 Wind from S
Vent: S 7 km/h
Température: 24°C
Point de Rosée: 17°C
Humidité: 65%
Baromètre: 1022 hPa
Nuages: Quelques Nuages
Visibilité: 10 km
Nuages details: Quelques Nuages 1402 m
2014/10/02 16:00 LFML 021600Z 19004KT 160V230 9999 FEW046 24/17 Q1022 NOSIG
LFPM - Melun/, France
Distance de la station: NNE 213km
Mise à jour: 02/10/2014 18:00
partiellement nuageux
partiellement nuageux
 Wind from N
Vent: N 9 km/h
Température: 22°C
Point de Rosée: 14°C
Humidité: 61%
Baromètre: 1026 hPa
Nuages: partiellement nuageux
Visibilité: 10 km
2014/10/02 16:00 LFPM 021600Z AUTO 01005KT 320V040 9999 NSC 22/14 Q1026
 
LFJL - Metz-Nancy-Lorra/, France
Distance de la station: NE 416km
Mise à jour: 02/10/2014 18:00
Quelques Nuages
Quelques Nuages
 Wind from ENE
Vent: ENE 13 km/h
Température: 21°C
Point de Rosée: 12°C
Humidité: 57%
Baromètre: 1027 hPa
Nuages: Quelques Nuages
Visibilité: 10 km
Nuages details: Quelques Nuages 1433 m
2014/10/02 16:00 LFJL 021600Z AUTO 06007KT 9999 FEW047 21/12 Q1027
LFBM - Mont-De-Marsan/, France
Distance de la station: SSO 365km
Mise à jour: 02/10/2014 18:00
partiellement nuageux
partiellement nuageux
 Wind from E
Vent: E 7 km/h
Température: 26°C
Point de Rosée: 12°C
Humidité: 42%
Baromètre: 1024 hPa
Nuages: partiellement nuageux
Visibilité: 10 km
2014/10/02 16:00 LFBM 021600Z AUTO 09004KT 040V130 9999 NSC 26/12 Q1024
 
LFSO - Nancy/, France
Distance de la station: ENE 375km
Mise à jour: 02/10/2014 18:00
partiellement nuageux
partiellement nuageux
 Wind from NNE
Vent: NNE 13 km/h
Température: 21°C
Point de Rosée: 13°C
Humidité: 60%
Baromètre: 1027 hPa
Nuages: partiellement nuageux
Visibilité: 10 km
Nuages details: partiellement nuageux 1219 m
partiellement nuageux 7315 m
2014/10/02 16:00 LFSO 021600Z AUTO 03007KT 9999 SCT040 SCT240 21/13 Q1027
LFRS - Nantes/, France
Distance de la station: O 252km
Mise à jour: 02/10/2014 18:00
nuageux
nuageux
 Wind from NNO
Vent: NNO 6 km/h
Température: 23°C
Point de Rosée: 15°C
Humidité: 61%
Baromètre: 1025 hPa
Nuages: nuageux
Visibilité: 10 km
Nuages details: Quelques Nuages 1402 m
nuageux 7925 m
2014/10/02 16:00 LFRS 021600Z 33003KT 300V360 9999 FEW046 BKN260 23/15 Q1025 NOSIG
 
LFTW - Nimes/, France
Distance de la station: SE 402km
Mise à jour: 02/10/2014 18:00
partiellement nuageux
partiellement nuageux
 Wind from NNE
Vent: NNE 7 km/h
Température: 25°C
Point de Rosée: 11°C
Humidité: 42%
Baromètre: 1022 hPa
Nuages: partiellement nuageux
Visibilité: 10 km
2014/10/02 16:00 LFTW 021600Z AUTO 03004KT 360V060 9999 NSC 25/11 Q1022
LFMO - Orange/, France
Distance de la station: SE 387km
Mise à jour: 02/10/2014 18:00
partiellement nuageux
partiellement nuageux
 Wind from N
Vent: N 13 km/h
Température: 25°C
Point de Rosée: 15°C
Humidité: 54%
Baromètre: 1022 hPa
Nuages: partiellement nuageux
Visibilité: 10 km
2014/10/02 16:00 LFMO 021600Z AUTO 35007KT 9999 NSC 25/15 Q1022
 
LFOJ - Orleans/, France
Distance de la station: N 128km
Mise à jour: 02/10/2014 18:00
partiellement nuageux
partiellement nuageux
 Wind from E
Vent: E 7 km/h
Température: 23°C
Point de Rosée: 12°C
Humidité: 50%
Baromètre: 1026 hPa
Nuages: partiellement nuageux
Visibilité: 10 km
2014/10/02 16:00 LFOJ 021600Z AUTO 09004KT 050V150 9999 NSC 23/12 Q1026
LFPB - Paris/, France
Distance de la station: NNE 246km
Mise à jour: 02/10/2014 18:00
partiellement nuageux
partiellement nuageux
 Wind from N
Vent: N 9 km/h
Température: 21°C
Point de Rosée: 14°C
Humidité: 64%
Baromètre: 1026 hPa
Nuages: partiellement nuageux
Visibilité: 10 km
2014/10/02 16:00 LFPB 021600Z AUTO 01005KT 9999 NSC 21/14 Q1026
 
LFPO - Paris/Orly/, France
Distance de la station: NNE 218km
Mise à jour: 02/10/2014 18:00
nuageux
nuageux
 Wind from NE
Vent: NE 7 km/h
Température: 22°C
Point de Rosée: 13°C
Humidité: 57%
Baromètre: 1026 hPa
Nuages: nuageux
Visibilité: 10 km
Nuages details: Quelques Nuages 1341 m
nuageux 7620 m
2014/10/02 16:00 LFPO 021600Z 05004KT 9999 FEW044 BKN250 22/13 Q1026 NOSIG
LFMP - Perpignan/, France
Distance de la station: SSE 465km
Mise à jour: 02/10/2014 18:00
Quelques Nuages
Quelques Nuages
 Wind from SE
Vent: SE 13 km/h
Température: 24°C
Point de Rosée: 15°C
Humidité: 57%
Baromètre: 1022 hPa
Nuages: Quelques Nuages
Visibilité: 10 km
Nuages details: Quelques Nuages 1219 m
2014/10/02 16:00 LFMP 021600Z 13007KT 9999 FEW040 24/15 Q1022 NOSIG
 
LFBI - Poitiers/, France
Distance de la station: OSO 108km
Mise à jour: 02/10/2014 18:00
partiellement nuageux
partiellement nuageux
 Wind from ENE
Vent: ENE 11 km/h
Température: 23°C
Point de Rosée: 11°C
Humidité: 47%
Baromètre: 1025 hPa
Nuages: partiellement nuageux
Visibilité: 10 km
2014/10/02 16:00 LFBI 021600Z AUTO 07006KT 040V100 9999 NSC 23/11 Q1025
LFRQ - Quimper/, France
Distance de la station: ONO 458km
Mise à jour: 02/10/2014 18:00
Quelques Nuages
Quelques Nuages
 Wind from O
Vent: O 7 km/h
Température: 20°C
Point de Rosée: 16°C
Humidité: 78%
Baromètre: 1026 hPa
Nuages: Quelques Nuages
Visibilité: 10 km
Nuages details: Quelques Nuages 732 m
2014/10/02 16:00 LFRQ 021600Z AUTO 26004KT 190V300 9999 FEW024 20/16 Q1026
 
LFRN - Rennes/, France
Distance de la station: ONO 291km
Mise à jour: 02/10/2014 18:00
Couvert
Couvert
 Wind from variable
Vent: variable 4 km/h
Température: 22°C
Point de Rosée: 14°C
Humidité: 61%
Baromètre: 1026 hPa
Nuages: Couvert
Visibilité: 10 km
Nuages details: Quelques Nuages 1158 m
Couvert 2134 m
2014/10/02 16:00 LFRN 021600Z AUTO VRB02KT 9999 FEW038 OVC070 22/14 Q1026
LFCR - Rodez/, France
Distance de la station: SSE 277km
Mise à jour: 02/10/2014 18:00
partiellement nuageux
partiellement nuageux
 Wind from NNO
Vent: NNO 7 km/h
Température: 21°C
Point de Rosée: 10°C
Humidité: 50%
Baromètre: 1025 hPa
Nuages: partiellement nuageux
Visibilité: 10 km
2014/10/02 16:00 LFCR 021600Z AUTO 33004KT 290V010 9999 NSC 21/10 Q1025
 
LFYR - Romorantin/, France
Distance de la station: N 56km
Mise à jour: 02/10/2014 18:00
partiellement nuageux
partiellement nuageux
 Wind from N
Vent: N 6 km/h
Température: 24°C
Point de Rosée: 12°C
Humidité: 47%
Baromètre: 1025 hPa
Nuages: partiellement nuageux
Visibilité: 10 km
2014/10/02 16:00 LFYR 021600Z AUTO 35003KT 300V060 9999 NSC 24/12 Q1025
LFOP - Rouen/, France
Distance de la station: N 286km
Mise à jour: 02/10/2014 18:00
partiellement nuageux
partiellement nuageux
 Wind from ENE
Vent: ENE 6 km/h
Température: 19°C
Point de Rosée: 15°C
Humidité: 78%
Baromètre: 1027 hPa
Nuages: partiellement nuageux
Visibilité: 10 km
2014/10/02 16:00 LFOP 021600Z AUTO 06003KT 010V090 9999 NSC 19/15 Q1027
 
LFMY - Salon/, France
Distance de la station: SE 446km
Mise à jour: 02/10/2014 18:00
partiellement nuageux
partiellement nuageux
 Wind from SSO
Vent: SSO 9 km/h
Température: 24°C
Point de Rosée: 17°C
Humidité: 65%
Baromètre: 1022 hPa
Nuages: partiellement nuageux
Visibilité: 10 km
2014/10/02 16:00 LFMY 021600Z AUTO 21005KT 9999 NSC 24/17 Q1022
LFST - Strasbourg/, France
Distance de la station: ENE 483km
Mise à jour: 02/10/2014 18:00
partiellement nuageux
partiellement nuageux
 Wind from NNE
Vent: NNE 19 km/h
Température: 22°C
Point de Rosée: 13°C
Humidité: 57%
Baromètre: 1026 hPa
Nuages: partiellement nuageux
Visibilité: 10 km
2014/10/02 16:00 LFST 021600Z AUTO 03010KT 9999 NSC 22/13 Q1026
 
LFRT - Saint-Brieuc/, France
Distance de la station: ONO 388km
Mise à jour: 02/10/2014 18:00
partiellement nuageux
partiellement nuageux
 Wind from E
Vent: E 7 km/h
Température: 18°C
Point de Rosée: 16°C
Humidité: 88%
Baromètre: 1027 hPa
Nuages: partiellement nuageux
Visibilité: 10 km
2014/10/02 16:00 LFRT 021600Z AUTO 08004KT 9999 NSC 18/16 Q1027
LFSI - St. Dizier/, France
Distance de la station: NE 313km
Mise à jour: 02/10/2014 18:00
partiellement nuageux
partiellement nuageux
 Wind from NNE
Vent: NNE 9 km/h
Température: 22°C
Point de Rosée: 13°C
Humidité: 57%
Baromètre: 1026 hPa
Nuages: partiellement nuageux
Visibilité: 10 km
2014/10/02 16:00 LFSI 021600Z AUTO 02005KT 9999 NSC 22/13 Q1026
 
LFMH - St Etienne/, France
Distance de la station: SE 247km
Mise à jour: 02/10/2014 18:00
nuageux
nuageux
 Wind from NO
Vent: NO 7 km/h
Température: 20°C
Point de Rosée: 13°C
Humidité: 64%
Baromètre: 1025 hPa
Nuages: nuageux
Visibilité: 10 km
Nuages details: nuageux 1311 m
2014/10/02 16:00 LFMH 021600Z 32004KT 280V360 9999 BKN043 20/13 Q1025 NOSIG
LFRG - St Gatien/, France
Distance de la station: NNO 305km
Mise à jour: 02/10/2014 18:00
Quelques Nuages
Quelques Nuages
 Wind from NE
Vent: NE 7 km/h
Température: 19°C
Point de Rosée: 16°C
Humidité: 83%
Baromètre: 1027 hPa
Nuages: Quelques Nuages
Visibilité: 10 km
Nuages details: Quelques Nuages 457 m
2014/10/02 16:00 LFRG 021600Z AUTO 05004KT 020V100 9999 FEW015 19/16 Q1027
 
LFRZ - St. Nazaire/, France
Distance de la station: ONO 297km
Mise à jour: 02/10/2014 18:00
partiellement nuageux
partiellement nuageux
 Wind from variable
Vent: variable 2 km/h
Température: 23°C
Point de Rosée: 15°C
Humidité: 61%
Baromètre: 1026 hPa
Nuages: partiellement nuageux
Visibilité: 10 km
Nuages details: partiellement nuageux 1097 m
partiellement nuageux 1402 m
2014/10/02 16:00 LFRZ 021600Z AUTO VRB01KT 9999 SCT036 SCT046 23/15 Q1026
LFLN - Saint Yan/, France
Distance de la station: ESE 184km
Mise à jour: 02/10/2014 18:00
partiellement nuageux
partiellement nuageux
 Wind from variable
Vent: variable 4 km/h
Température: 22°C
Point de Rosée: 14°C
Humidité: 61%
Baromètre: 1025 hPa
Nuages: partiellement nuageux
Visibilité: 10 km
2014/10/02 16:00 LFLN 021600Z AUTO VRB02KT 9999 NSC 22/14 Q1025
 
LFBT - Tarbes/, France
Distance de la station: SSO 427km
Mise à jour: 02/10/2014 18:00
partiellement nuageux
partiellement nuageux
 Wind from variable
Vent: variable 4 km/h
Température: 23°C
Point de Rosée: 12°C
Humidité: 50%
Baromètre: 1024 hPa
Nuages: partiellement nuageux
Visibilité: 10 km
2014/10/02 16:00 LFBT 021600Z AUTO VRB02KT 9999 NSC 23/12 Q1024
LFSL - Toul/, France
Distance de la station: NE 356km
Mise à jour: 02/10/2014 18:00
partiellement nuageux
partiellement nuageux
 Wind from NNE
Vent: NNE 9 km/h
Température: 24°C
Point de Rosée: 10°C
Humidité: 41%
Baromètre: 1024 hPa
Nuages: partiellement nuageux
Visibilité: 10 km
2014/10/02 16:00 LFSL 021600Z AUTO 02005KT 350V050 9999 NSC 24/10 Q1024
 
LFBO - Toulouse/, France
Distance de la station: S 357km
Mise à jour: 02/10/2014 18:00
partiellement nuageux
partiellement nuageux
 Wind from N
Vent: N 13 km/h
Température: 24°C
Point de Rosée: 12°C
Humidité: 47%
Baromètre: 1024 hPa
Nuages: partiellement nuageux
Visibilité: 10 km
2014/10/02 16:00 LFBO 021600Z AUTO 36007KT 330V030 9999 NSC 24/12 Q1024
LFOT - Tours/, France
Distance de la station: NO 100km
Mise à jour: 02/10/2014 18:00
partiellement nuageux
partiellement nuageux
 Wind from NNE
Vent: NNE 6 km/h
Température: 23°C
Point de Rosée: 12°C
Humidité: 50%
Baromètre: 1026 hPa
Nuages: partiellement nuageux
Visibilité: 10 km
2014/10/02 16:00 LFOT 021600Z AUTO 03003KT 320V100 9999 NSC 23/12 Q1026
 
LFPN - Toussus Le Noble/, France
Distance de la station: N 217km
Mise à jour: 02/10/2014 18:00
partiellement nuageux
partiellement nuageux
 Wind from NNE
Vent: NNE 7 km/h
Température: 21°C
Point de Rosée: 14°C
Humidité: 64%
Baromètre: 1027 hPa
Nuages: partiellement nuageux
Visibilité: 10 km
2014/10/02 16:00 LFPN 021600Z AUTO 02004KT 9999 NSC 21/14 Q1027
LFPV - Villacoublay/, France
Distance de la station: N 220km
Mise à jour: 02/10/2014 18:00
partiellement nuageux
partiellement nuageux
 Wind from N
Vent: N 7 km/h
Température: 21°C
Point de Rosée: 13°C
Humidité: 60%
Baromètre: 1027 hPa
Nuages: partiellement nuageux
Visibilité: 10 km
2014/10/02 16:00 LFPV 021600Z AUTO 35004KT 320V050 9999 NSC 21/13 Q1027